createdAt,value
2022-09-20T00:04:32.577Z,998.17
2022-09-20T00:05:49.721Z,998.18
2022-09-20T00:06:47.383Z,998.17
2022-09-20T00:08:09.011Z,998.15
2022-09-20T00:09:26.586Z,998.11
2022-09-20T00:10:54.942Z,998.05
2022-09-20T00:12:04.904Z,998.10
2022-09-20T00:12:49.102Z,998.13
2022-09-20T00:17:42.547Z,998.14
2022-09-20T00:21:09.052Z,998.20
2022-09-20T00:44:15.293Z,998.11
2022-09-20T00:48:57.545Z,998.14
2022-09-20T00:54:10.248Z,998.07
2022-09-20T01:11:23.001Z,998.12
2022-09-20T01:13:06.257Z,998.12
2022-09-20T01:41:49.431Z,998.19
2022-09-20T02:06:40.203Z,998.33
2022-09-20T02:08:15.316Z,998.33
2022-09-20T02:09:21.679Z,998.34
2022-09-20T02:10:21.201Z,998.36
2022-09-20T02:13:50.046Z,998.39
2022-09-20T02:30:31.289Z,998.45
2022-09-20T02:46:11.734Z,998.44
2022-09-20T02:49:58.756Z,998.46
2022-09-20T02:53:18.188Z,998.45
2022-09-20T02:54:36.273Z,998.39
2022-09-20T02:59:05.751Z,998.48
2022-09-20T03:05:49.651Z,998.51
2022-09-20T03:06:49.755Z,998.54
2022-09-20T03:07:49.634Z,998.49
2022-09-20T03:08:49.677Z,998.46
2022-09-20T03:09:49.557Z,998.47
2022-09-20T03:10:49.548Z,998.50
2022-09-20T03:11:50.752Z,998.50
2022-09-20T03:12:50.723Z,998.48
2022-09-20T03:18:25.626Z,998.44
2022-09-20T03:25:02.325Z,998.51
2022-09-20T03:31:10.451Z,998.42
2022-09-20T03:49:31.788Z,998.32
2022-09-20T03:55:10.097Z,998.34
2022-09-20T03:56:19.016Z,998.40
2022-09-20T04:00:20.175Z,998.36
2022-09-20T04:01:29.994Z,998.44
2022-09-20T04:04:39.470Z,998.43
2022-09-20T04:05:39.492Z,998.43
2022-09-20T04:06:39.499Z,998.41
2022-09-20T04:07:39.474Z,998.49
2022-09-20T04:08:40.330Z,998.43
2022-09-20T04:09:39.273Z,998.48
2022-09-20T04:10:39.241Z,998.42
2022-09-20T04:11:40.531Z,998.50
2022-09-20T04:12:40.453Z,998.54
2022-09-20T04:13:40.486Z,998.54
2022-09-20T04:14:40.583Z,998.57
2022-09-20T04:15:40.859Z,998.46
2022-09-20T04:16:40.534Z,998.50
2022-09-20T04:17:40.443Z,998.45
2022-09-20T04:18:40.548Z,998.53
2022-09-20T04:19:40.389Z,998.51
2022-09-20T04:20:40.526Z,998.55
2022-09-20T04:21:40.467Z,998.52
2022-09-20T04:22:40.345Z,998.50
2022-09-20T04:23:40.462Z,998.52
2022-09-20T04:24:40.371Z,998.53
2022-09-20T04:25:43.798Z,998.54
2022-09-20T04:26:41.440Z,998.48
2022-09-20T04:27:40.341Z,998.57
2022-09-20T04:28:40.425Z,998.57
2022-09-20T04:56:20.983Z,998.65
2022-09-20T04:57:21.041Z,998.68
2022-09-20T04:58:21.397Z,998.66
2022-09-20T05:02:08.603Z,998.73
2022-09-20T05:03:08.549Z,998.79
2022-09-20T05:04:09.897Z,998.68
2022-09-20T05:05:09.588Z,998.75
2022-09-20T05:06:09.640Z,998.69
2022-09-20T05:07:09.531Z,998.73
2022-09-20T05:08:09.525Z,998.70
2022-09-20T05:09:09.734Z,998.69
2022-09-20T05:10:09.497Z,998.70
2022-09-20T05:11:09.570Z,998.69
2022-09-20T05:12:09.539Z,998.69
2022-09-20T05:13:09.491Z,998.70
2022-09-20T05:14:09.445Z,998.65
2022-09-20T05:15:09.589Z,998.68
2022-09-20T05:20:17.361Z,998.79
2022-09-20T05:21:17.420Z,998.78
2022-09-20T05:22:17.293Z,998.75
2022-09-20T05:23:17.394Z,998.73
2022-09-20T05:24:17.198Z,998.82
2022-09-20T05:25:17.216Z,998.79
2022-09-20T05:26:18.422Z,998.81
2022-09-20T05:27:44.975Z,998.79
2022-09-20T05:35:15.031Z,998.87
2022-09-20T05:36:16.646Z,998.87
2022-09-20T05:37:16.525Z,998.87
2022-09-20T05:38:16.211Z,998.88
2022-09-20T05:56:30.904Z,999.14
2022-09-20T05:57:32.284Z,999.18
2022-09-20T05:58:32.272Z,999.16
2022-09-20T06:01:41.371Z,999.27
2022-09-20T06:02:41.346Z,999.29
2022-09-20T06:05:30.230Z,999.33
2022-09-20T06:16:45.632Z,999.42
2022-09-20T06:17:46.966Z,999.40
2022-09-20T06:18:46.813Z,999.40
2022-09-20T06:19:46.650Z,999.49
2022-09-20T06:20:46.639Z,999.45
2022-09-20T06:21:46.670Z,999.46
2022-09-20T06:22:46.652Z,999.40
2022-09-20T06:36:17.524Z,999.50
2022-09-20T06:56:39.588Z,999.53
2022-09-20T06:57:40.965Z,999.60
2022-09-20T06:58:40.676Z,999.54
2022-09-20T06:59:40.631Z,999.57
2022-09-20T07:00:40.775Z,999.53
2022-09-20T07:01:40.713Z,999.56
2022-09-20T07:02:40.578Z,999.43
2022-09-20T07:03:40.590Z,999.49
2022-09-20T07:04:40.603Z,999.45
2022-09-20T07:05:40.803Z,999.47
2022-09-20T07:06:40.560Z,999.45
2022-09-20T07:07:40.594Z,999.41
2022-09-20T07:08:40.559Z,999.46
2022-09-20T07:09:40.542Z,999.49
2022-09-20T07:10:40.676Z,999.47
2022-09-20T07:11:40.575Z,999.53
2022-09-20T07:12:40.478Z,999.51
2022-09-20T07:13:40.526Z,999.54
2022-09-20T07:14:40.485Z,999.50
2022-09-20T07:15:40.476Z,999.53
2022-09-20T07:16:40.624Z,999.53
2022-09-20T07:17:40.482Z,999.56
2022-09-20T07:18:40.472Z,999.54
2022-09-20T07:19:40.421Z,999.58
2022-09-20T07:20:40.433Z,999.58
2022-09-20T07:21:40.437Z,999.57
2022-09-20T07:22:40.404Z,999.56
2022-09-20T07:23:41.412Z,999.58
2022-09-20T07:24:40.382Z,999.60
2022-09-20T07:25:40.433Z,999.64
2022-09-20T07:26:40.397Z,999.58
2022-09-20T07:27:40.363Z,999.62
2022-09-20T07:28:40.318Z,999.63
2022-09-20T07:29:40.372Z,999.56
2022-09-20T07:30:40.389Z,999.60
2022-09-20T07:36:56.354Z,999.64
2022-09-20T07:37:56.382Z,999.70
2022-09-20T07:38:56.388Z,999.67
2022-09-20T07:39:56.405Z,999.72
2022-09-20T07:40:57.449Z,999.67
2022-09-20T07:41:57.936Z,999.70
2022-09-20T07:42:57.357Z,999.70
2022-09-20T07:43:57.380Z,999.69
2022-09-20T07:44:57.358Z,999.67
2022-09-20T07:45:57.374Z,999.72
2022-09-20T07:46:57.275Z,999.71
2022-09-20T07:47:57.290Z,999.71
2022-09-20T07:48:57.321Z,999.71
2022-09-20T07:49:57.306Z,999.76
2022-09-20T07:50:57.322Z,999.76
2022-09-20T07:51:57.271Z,999.70
2022-09-20T07:52:57.287Z,999.66
2022-09-20T07:53:57.236Z,999.65
2022-09-20T07:54:57.262Z,999.73
2022-09-20T07:55:57.242Z,999.69
2022-09-20T07:56:57.229Z,999.69
2022-09-20T07:57:57.199Z,999.81
2022-09-20T07:58:57.257Z,999.78
2022-09-20T07:59:58.191Z,999.76
2022-09-20T08:00:57.249Z,999.80
2022-09-20T08:01:57.243Z,999.80
2022-09-20T08:02:57.161Z,999.80
2022-09-20T08:03:57.160Z,999.79
2022-09-20T08:04:57.140Z,999.84
2022-09-20T08:05:57.158Z,999.87
2022-09-20T08:06:57.207Z,999.82
2022-09-20T08:07:57.104Z,999.87
2022-09-20T08:08:57.123Z,999.85
2022-09-20T08:09:57.166Z,999.91
2022-09-20T08:10:57.099Z,999.96
2022-09-20T08:11:57.455Z,999.94
2022-09-20T08:14:07.782Z,999.97
2022-09-20T08:14:59.109Z,999.97
2022-09-20T08:15:57.025Z,999.94
2022-09-20T08:16:57.154Z,999.94
2022-09-20T08:17:57.011Z,999.96
2022-09-20T08:18:58.771Z,1000.03
2022-09-20T08:19:57.022Z,1000.01
2022-09-20T08:20:56.978Z,1000.04
2022-09-20T08:21:57.038Z,1000.00
2022-09-20T08:23:22.171Z,999.98
2022-09-20T08:23:58.981Z,1000.00
2022-09-20T08:24:56.982Z,999.99
2022-09-20T08:25:56.904Z,999.95
2022-09-20T08:26:56.972Z,999.93
2022-09-20T08:27:56.906Z,999.92
2022-09-20T08:28:56.937Z,999.95
2022-09-20T08:29:56.903Z,999.89
2022-09-20T08:30:56.909Z,999.86
2022-09-20T08:31:56.982Z,999.88
2022-09-20T08:32:56.850Z,999.83
2022-09-20T08:33:56.920Z,999.92
2022-09-20T08:34:56.823Z,999.92
2022-09-20T08:35:57.663Z,999.90
2022-09-20T08:36:57.908Z,999.92
2022-09-20T08:37:56.985Z,999.89
2022-09-20T08:39:59.320Z,999.93
2022-09-20T08:40:56.797Z,999.91
2022-09-20T08:41:56.842Z,999.94
2022-09-20T08:42:56.753Z,999.86
2022-09-20T08:43:56.816Z,999.92
2022-09-20T08:44:58.174Z,999.94
2022-09-20T08:45:57.807Z,999.98
2022-09-20T08:46:56.796Z,999.94
2022-09-20T08:47:58.809Z,999.92
2022-09-20T08:48:57.734Z,999.99
2022-09-20T08:49:57.284Z,1000.01
2022-09-20T08:50:57.695Z,1000.02
2022-09-20T08:51:56.716Z,999.99
2022-09-20T08:53:00.112Z,999.96
2022-09-20T08:53:57.682Z,999.98
2022-09-20T08:54:56.637Z,1000.01
2022-09-20T08:55:56.660Z,999.97
2022-09-20T08:56:56.660Z,999.98
2022-09-20T08:57:56.623Z,999.97
2022-09-20T08:58:56.610Z,1000.03
2022-09-20T08:59:56.596Z,999.97
2022-09-20T09:00:56.641Z,1000.00
2022-09-20T09:01:56.674Z,999.93
2022-09-20T09:02:56.561Z,999.98
2022-09-20T09:03:56.545Z,999.93
2022-09-20T09:04:56.497Z,999.98
2022-09-20T09:05:56.484Z,999.93
2022-09-20T09:06:56.549Z,1000.02
2022-09-20T09:07:56.509Z,1000.00
2022-09-20T09:08:56.474Z,999.93
2022-09-20T09:09:56.486Z,1000.00
2022-09-20T09:10:56.417Z,999.94
2022-09-20T09:11:56.453Z,999.91
2022-09-20T09:12:56.533Z,999.91
2022-09-20T09:13:56.536Z,999.89
2022-09-20T09:14:56.412Z,999.85
2022-09-20T09:15:56.428Z,999.89
2022-09-20T09:16:56.484Z,999.95
2022-09-20T09:17:56.361Z,999.97
2022-09-20T09:18:56.381Z,999.94
2022-09-20T09:19:56.390Z,999.95
2022-09-20T09:20:56.393Z,1000.03
2022-09-20T09:21:56.354Z,1000.02
2022-09-20T09:22:56.337Z,1000.00
2022-09-20T09:23:56.356Z,1000.05
2022-09-20T09:24:56.319Z,999.98
2022-09-20T09:25:56.307Z,1000.00
2022-09-20T09:26:56.354Z,1000.08
2022-09-20T09:27:56.334Z,1000.04
2022-09-20T09:28:56.301Z,999.98
2022-09-20T09:29:56.305Z,1000.10
2022-09-20T09:30:56.284Z,1000.11
2022-09-20T09:31:56.351Z,1000.08
2022-09-20T09:32:56.295Z,1000.14
2022-09-20T09:33:57.257Z,1000.09
2022-09-20T09:34:56.231Z,1000.11
2022-09-20T09:35:56.177Z,1000.12
2022-09-20T09:36:56.319Z,1000.06
2022-09-20T09:37:56.214Z,1000.11
2022-09-20T09:38:56.187Z,1000.07
2022-09-20T09:39:56.152Z,1000.08
2022-09-20T09:40:56.158Z,1000.08
2022-09-20T09:41:56.187Z,1000.04
2022-09-20T09:42:56.174Z,1000.15
2022-09-20T09:43:56.206Z,1000.10
2022-09-20T09:44:56.155Z,1000.07
2022-09-20T09:45:56.135Z,1000.05
2022-09-20T09:46:56.117Z,1000.03
2022-09-20T09:47:56.093Z,1000.07
2022-09-20T09:48:56.129Z,1000.08
2022-09-20T09:50:00.172Z,1000.05
2022-09-20T09:50:58.035Z,1000.03
2022-09-20T09:51:56.107Z,999.99
2022-09-20T09:52:56.055Z,1000.08
2022-09-20T09:53:56.017Z,1000.07
2022-09-20T09:54:55.991Z,1000.08
2022-09-20T09:55:56.007Z,1000.05
2022-09-20T09:56:56.015Z,1000.01
2022-09-20T09:57:56.025Z,1000.08
2022-09-20T09:58:55.974Z,1000.01
2022-09-20T09:59:55.964Z,1000.07
2022-09-20T10:00:55.984Z,1000.07
2022-09-20T10:01:56.098Z,1000.02
2022-09-20T10:02:55.963Z,1000.05
2022-09-20T10:03:55.920Z,1000.03
2022-09-20T10:04:55.891Z,1000.08
2022-09-20T10:05:55.943Z,1000.02
2022-09-20T10:06:56.023Z,999.96
2022-09-20T10:07:55.894Z,999.98
2022-09-20T10:08:55.948Z,1000.11
2022-09-20T10:09:55.898Z,1000.07
2022-09-20T10:10:55.856Z,1000.05
2022-09-20T10:11:55.902Z,1000.07
2022-09-20T10:12:55.834Z,1000.07
2022-09-20T10:13:55.989Z,1000.04
2022-09-20T10:14:55.873Z,1000.06
2022-09-20T10:15:55.811Z,1000.09
2022-09-20T10:16:55.913Z,1000.11
2022-09-20T10:17:55.761Z,1000.11
2022-09-20T10:18:55.801Z,1000.05
2022-09-20T10:19:55.763Z,1000.09
2022-09-20T10:20:55.817Z,1000.05
2022-09-20T10:21:55.744Z,1000.02
2022-09-20T10:23:30.092Z,1000.03
2022-09-20T10:24:05.166Z,1000.03
2022-09-20T10:24:57.737Z,999.99
2022-09-20T10:25:55.717Z,999.97
2022-09-20T10:26:55.734Z,999.99
2022-09-20T10:27:55.718Z,1000.03
2022-09-20T10:28:55.732Z,1000.00
2022-09-20T10:29:55.692Z,999.99
2022-09-20T10:30:55.692Z,999.96
2022-09-20T10:31:55.645Z,999.87
2022-09-20T10:32:55.702Z,999.89
2022-09-20T10:33:55.652Z,999.89
2022-09-20T10:34:55.640Z,999.89
2022-09-20T10:35:55.638Z,999.89
2022-09-20T10:36:55.657Z,999.83
2022-09-20T10:37:55.580Z,999.81
2022-09-20T10:38:55.584Z,999.87
2022-09-20T10:39:55.563Z,999.83
2022-09-20T10:40:56.558Z,999.86
2022-09-20T10:41:55.548Z,999.83
2022-09-20T10:42:55.543Z,999.76
2022-09-20T10:43:55.569Z,999.81
2022-09-20T10:44:55.522Z,999.83
2022-09-20T10:46:57.582Z,999.86
2022-09-20T10:47:55.461Z,999.83
2022-09-20T10:48:55.480Z,999.81
2022-09-20T10:49:55.463Z,999.90
2022-09-20T10:50:55.455Z,999.86
2022-09-20T10:51:55.459Z,999.81
2022-09-20T10:52:55.470Z,999.92
2022-09-20T10:53:55.428Z,999.92
2022-09-20T10:54:55.434Z,999.87
2022-09-20T10:55:55.377Z,999.90
2022-09-20T10:56:56.424Z,999.93
2022-09-20T10:57:55.464Z,999.92
2022-09-20T10:58:55.405Z,999.96
2022-09-20T10:59:55.341Z,999.93
2022-09-20T11:00:55.349Z,999.96
2022-09-20T11:01:55.414Z,999.95
2022-09-20T11:02:55.416Z,1000.04
2022-09-20T11:03:55.331Z,1000.03
2022-09-20T11:04:55.320Z,1000.06
2022-09-20T11:05:55.291Z,1000.02
2022-09-20T11:06:55.334Z,1000.02
2022-09-20T11:07:56.291Z,1000.02
2022-09-20T11:08:55.281Z,1000.06
2022-09-20T11:09:55.256Z,1000.01
2022-09-20T11:10:55.281Z,1000.08
2022-09-20T11:11:55.247Z,1000.05
2022-09-20T11:12:55.261Z,999.99
2022-09-20T11:13:55.253Z,1000.09
2022-09-20T11:14:55.219Z,1000.01
2022-09-20T11:15:55.211Z,1000.03
2022-09-20T11:16:55.251Z,1000.01
2022-09-20T11:17:55.226Z,1000.00
2022-09-20T11:18:55.236Z,1000.02
2022-09-20T11:19:55.156Z,1000.00
2022-09-20T11:20:55.142Z,1000.03
2022-09-20T11:21:55.142Z,1000.05
2022-09-20T11:22:55.091Z,1000.01
2022-09-20T11:23:55.162Z,1000.03
2022-09-20T11:24:55.189Z,1000.00
2022-09-20T11:25:55.087Z,1000.03
2022-09-20T11:26:55.159Z,1000.08
2022-09-20T11:27:55.095Z,1000.05
2022-09-20T11:28:55.050Z,999.96
2022-09-20T11:29:55.052Z,1000.00
2022-09-20T11:30:55.091Z,999.95
2022-09-20T11:31:55.136Z,999.98
2022-09-20T11:32:55.030Z,999.99
2022-09-20T11:33:55.039Z,999.99
2022-09-20T11:34:55.015Z,999.94
2022-09-20T11:35:55.042Z,999.96
2022-09-20T11:36:55.118Z,999.98
2022-09-20T11:37:55.009Z,1000.01
2022-09-20T11:38:54.938Z,1000.00
2022-09-20T11:39:55.073Z,999.91
2022-09-20T11:40:55.000Z,1000.00
2022-09-20T11:41:54.959Z,999.95
2022-09-20T11:42:54.912Z,999.98
2022-09-20T11:43:54.944Z,1000.03
2022-09-20T11:44:54.913Z,1000.05
2022-09-20T11:45:54.921Z,1000.07
2022-09-20T11:46:54.905Z,1000.11
2022-09-20T11:47:55.858Z,1000.09
2022-09-20T11:48:55.890Z,1000.05
2022-09-20T11:49:54.906Z,1000.08
2022-09-20T11:50:54.898Z,1000.02
2022-09-20T11:51:54.840Z,1000.02
2022-09-20T11:52:54.840Z,1000.00
2022-09-20T11:53:54.794Z,1000.03
2022-09-20T11:54:54.851Z,1000.03
2022-09-20T11:55:54.808Z,999.97
2022-09-20T11:56:54.790Z,999.94
2022-09-20T11:57:54.808Z,999.93
2022-09-20T11:58:54.826Z,1000.00
2022-09-20T11:59:54.804Z,999.98
2022-09-20T12:00:54.781Z,999.92
2022-09-20T12:01:54.862Z,999.92
2022-09-20T12:02:54.841Z,999.90
2022-09-20T12:04:14.168Z,999.85
2022-09-20T12:04:56.718Z,999.84
2022-09-20T12:05:54.719Z,999.91
2022-09-20T12:06:54.734Z,999.88
2022-09-20T12:07:54.666Z,999.94
2022-09-20T12:08:54.683Z,999.87
2022-09-20T12:09:54.659Z,999.88
2022-09-20T12:10:54.663Z,999.88
2022-09-20T12:11:54.657Z,999.89
2022-09-20T12:12:54.659Z,999.92
2022-09-20T12:13:54.668Z,999.92
2022-09-20T12:14:54.629Z,999.85
2022-09-20T12:15:54.599Z,999.93
2022-09-20T12:16:54.660Z,999.89
2022-09-20T12:17:54.544Z,999.89
2022-09-20T12:18:54.632Z,999.86
2022-09-20T12:19:54.574Z,999.95
2022-09-20T12:20:54.542Z,999.85
2022-09-20T12:21:54.542Z,999.86
2022-09-20T12:22:54.538Z,999.89
2022-09-20T12:23:54.514Z,999.78
2022-09-20T12:24:54.478Z,999.76
2022-09-20T12:25:54.508Z,999.80
2022-09-20T12:26:54.555Z,999.80
2022-09-20T12:27:54.589Z,999.79
2022-09-20T12:28:54.460Z,999.77
2022-09-20T12:29:54.459Z,999.74
2022-09-20T12:30:54.456Z,999.76
2022-09-20T12:31:54.481Z,999.72
2022-09-20T12:32:54.437Z,999.78
2022-09-20T12:33:54.421Z,999.79
2022-09-20T12:34:54.398Z,999.73
2022-09-20T12:35:54.426Z,999.80
2022-09-20T12:36:54.395Z,999.75
2022-09-20T12:37:54.371Z,999.75
2022-09-20T12:38:54.374Z,999.77
2022-09-20T12:39:54.393Z,999.79
2022-09-20T12:40:54.348Z,999.75
2022-09-20T12:41:54.375Z,999.75
2022-09-20T12:42:54.350Z,999.78
2022-09-20T12:43:54.401Z,999.74
2022-09-20T12:44:54.298Z,999.74
2022-09-20T12:45:54.323Z,999.75
2022-09-20T12:46:54.307Z,999.72
2022-09-20T12:47:54.405Z,999.77
2022-09-20T12:48:54.318Z,999.70
2022-09-20T12:49:54.256Z,999.79
2022-09-20T12:50:54.251Z,999.83
2022-09-20T12:51:54.232Z,999.83
2022-09-20T12:52:54.282Z,999.81
2022-09-20T12:53:54.219Z,999.74
2022-09-20T12:54:54.603Z,999.85
2022-09-20T12:55:55.266Z,999.80
2022-09-20T12:56:54.214Z,999.79
2022-09-20T12:57:54.193Z,999.80
2022-09-20T12:58:54.201Z,999.78
2022-09-20T12:59:54.160Z,999.79
2022-09-20T13:00:54.180Z,999.76
2022-09-20T13:01:54.233Z,999.73
2022-09-20T13:02:54.146Z,999.77
2022-09-20T13:03:54.119Z,999.71
2022-09-20T13:04:54.236Z,999.78
2022-09-20T13:05:54.089Z,999.71
2022-09-20T13:06:54.147Z,999.72
2022-09-20T13:07:54.121Z,999.75
2022-09-20T13:08:54.040Z,999.77
2022-09-20T13:09:54.070Z,999.77
2022-09-20T13:10:54.058Z,999.74
2022-09-20T13:11:54.074Z,999.74
2022-09-20T13:12:54.740Z,999.79
2022-09-20T13:13:55.039Z,999.80
2022-09-20T13:14:53.985Z,999.80
2022-09-20T13:15:54.096Z,999.76
2022-09-20T13:16:54.858Z,999.76
2022-09-20T13:17:56.579Z,999.82
2022-09-20T13:18:53.944Z,999.79
2022-09-20T13:19:56.622Z,999.81
2022-09-20T13:20:55.255Z,999.86
2022-09-20T13:21:55.740Z,999.84
2022-09-20T13:22:59.572Z,999.74
2022-09-20T13:23:55.947Z,999.71
2022-09-20T13:24:54.487Z,999.79
2022-09-20T13:25:55.198Z,999.73
2022-09-20T13:26:55.683Z,999.73
2022-09-20T13:27:56.607Z,999.74
2022-09-20T13:28:55.943Z,999.74
2022-09-20T13:29:57.168Z,999.76
2022-09-20T13:31:06.179Z,999.70
2022-09-20T13:31:57.774Z,999.70
2022-09-20T13:32:54.059Z,999.78
2022-09-20T13:33:54.043Z,999.72
2022-09-20T13:36:14.606Z,999.72
2022-09-20T13:36:16.440Z,999.74
2022-09-20T13:37:16.324Z,999.73
2022-09-20T13:38:16.158Z,999.67
2022-09-20T13:39:17.037Z,999.67
2022-09-20T13:40:19.284Z,999.71
2022-09-20T13:41:16.591Z,999.59
2022-09-20T13:42:17.680Z,999.63
2022-09-20T13:43:24.242Z,999.64
2022-09-20T13:44:18.192Z,999.62
2022-09-20T13:45:16.579Z,999.59
2022-09-20T13:47:46.343Z,999.52
2022-09-20T13:47:48.749Z,999.47
2022-09-20T13:50:14.605Z,999.43
2022-09-20T13:51:37.641Z,999.51
2022-09-20T13:51:39.793Z,999.54
2022-09-20T13:52:39.482Z,999.55
2022-09-20T13:53:41.835Z,999.52
2022-09-20T13:54:40.312Z,999.53
2022-09-20T13:55:39.285Z,999.51
2022-09-20T13:56:39.289Z,999.42
2022-09-20T13:57:39.802Z,999.52
2022-09-20T13:58:39.646Z,999.46
2022-09-20T13:59:39.620Z,999.48
2022-09-20T14:00:39.529Z,999.48
2022-09-20T14:01:39.288Z,999.46
2022-09-20T14:02:39.822Z,999.40
2022-09-20T14:03:40.147Z,999.51
2022-09-20T14:04:39.163Z,999.44
2022-09-20T14:05:39.492Z,999.51
2022-09-20T14:06:39.098Z,999.51
2022-09-20T14:07:39.310Z,999.46
2022-09-20T14:08:39.145Z,999.59
2022-09-20T14:09:40.798Z,999.51
2022-09-20T14:10:39.155Z,999.57
2022-09-20T14:11:39.147Z,999.55
2022-09-20T14:12:39.139Z,999.55
2022-09-20T14:13:39.107Z,999.48
2022-09-20T14:14:39.639Z,999.60
2022-09-20T14:15:39.083Z,999.60
2022-09-20T14:16:39.076Z,999.63
2022-09-20T14:17:40.685Z,999.75
2022-09-20T14:18:39.262Z,999.75
2022-09-20T14:19:39.754Z,999.69
2022-09-20T14:20:39.161Z,999.74
2022-09-20T14:21:39.566Z,999.79
2022-09-20T14:22:41.341Z,999.77
2022-09-20T14:23:38.984Z,999.84
2022-09-20T14:24:39.100Z,999.83
2022-09-20T14:25:39.050Z,999.88
2022-09-20T14:26:38.980Z,999.85
2022-09-20T14:27:39.293Z,999.88
2022-09-20T14:28:38.882Z,999.89
2022-09-20T14:29:41.096Z,1000.00
2022-09-20T14:30:39.495Z,1000.05
2022-09-20T14:31:39.102Z,1000.02
2022-09-20T14:32:39.028Z,999.98
2022-09-20T14:33:38.972Z,1000.00
2022-09-20T14:34:44.214Z,1000.04
2022-09-20T14:35:38.890Z,1000.09
2022-09-20T14:36:39.211Z,1000.09
2022-09-20T14:37:38.917Z,1000.04
2022-09-20T14:38:38.765Z,1000.05
2022-09-20T14:39:42.983Z,1000.09
2022-09-20T14:40:40.071Z,1000.11
2022-09-20T14:41:39.083Z,1000.06
2022-09-20T14:42:38.775Z,1000.12
2022-09-20T14:43:39.076Z,1000.11
2022-09-20T14:44:40.628Z,1000.05
2022-09-20T14:45:39.108Z,1000.03
2022-09-20T14:46:39.111Z,1000.04
2022-09-20T14:47:39.282Z,1000.01
2022-09-20T14:48:38.776Z,1000.05
2022-09-20T14:49:38.804Z,1000.07
2022-09-20T14:50:39.369Z,1000.08
2022-09-20T14:51:38.974Z,1000.06
2022-09-20T14:52:38.702Z,1000.07
2022-09-20T14:53:38.677Z,1000.11
2022-09-20T14:54:38.905Z,1000.06
2022-09-20T14:55:38.640Z,1000.09
2022-09-20T14:56:38.920Z,1000.15
2022-09-20T14:57:38.588Z,1000.11
2022-09-20T14:58:38.631Z,1000.11
2022-09-20T14:59:38.650Z,1000.09
2022-09-20T15:00:38.668Z,1000.11
2022-09-20T15:01:38.820Z,1000.03
2022-09-20T15:02:38.627Z,1000.06
2022-09-20T15:03:39.576Z,1000.05
2022-09-20T15:04:38.543Z,1000.07
2022-09-20T15:05:38.492Z,1000.04
2022-09-20T15:06:38.542Z,1000.09
2022-09-20T15:07:38.574Z,999.98
2022-09-20T15:08:40.786Z,1000.03
2022-09-20T15:09:39.411Z,1000.05
2022-09-20T15:10:38.448Z,1000.01
2022-09-20T15:11:38.434Z,999.97
2022-09-20T15:12:38.390Z,999.90
2022-09-20T15:13:38.438Z,1000.01
2022-09-20T15:14:38.396Z,1000.02
2022-09-20T15:15:38.393Z,1000.00
2022-09-20T15:16:38.420Z,1000.04
2022-09-20T15:17:38.378Z,1000.06
2022-09-20T15:18:38.384Z,1000.05
2022-09-20T15:19:38.330Z,1000.03
2022-09-20T15:20:38.377Z,1000.05
2022-09-20T15:21:38.358Z,1000.00
2022-09-20T15:22:38.298Z,1000.00
2022-09-20T15:23:38.315Z,1000.03
2022-09-20T15:24:38.323Z,1000.02
2022-09-20T15:25:38.305Z,999.99
2022-09-20T15:26:38.295Z,1000.04
2022-09-20T15:27:38.297Z,999.97
2022-09-20T15:28:38.266Z,1000.01
2022-09-20T15:29:38.255Z,1000.03
2022-09-20T15:30:38.242Z,1000.04
2022-09-20T15:31:38.347Z,1000.15
2022-09-20T15:32:38.233Z,1000.15
2022-09-20T15:33:38.206Z,1000.15
2022-09-20T15:34:38.205Z,1000.18
2022-09-20T15:35:38.208Z,1000.16
2022-09-20T15:36:38.208Z,1000.16
2022-09-20T15:37:38.164Z,1000.17
2022-09-20T15:38:38.224Z,1000.14
2022-09-20T15:39:38.145Z,1000.17
2022-09-20T15:40:38.243Z,1000.18
2022-09-20T15:41:38.144Z,1000.20
2022-09-20T15:42:38.149Z,1000.25
2022-09-20T15:43:38.125Z,1000.19
2022-09-20T15:44:38.110Z,1000.20
2022-09-20T15:45:38.103Z,1000.24
2022-09-20T15:46:38.081Z,1000.20
2022-09-20T15:47:38.086Z,1000.23
2022-09-20T15:48:38.050Z,1000.23
2022-09-20T15:49:38.067Z,1000.29
2022-09-20T15:50:38.037Z,1000.30
2022-09-20T15:51:38.015Z,1000.35
2022-09-20T15:52:38.008Z,1000.32
2022-09-20T15:53:38.015Z,1000.31
2022-09-20T15:54:37.999Z,1000.32
2022-09-20T15:55:38.018Z,1000.27
2022-09-20T15:56:38.027Z,1000.26
2022-09-20T15:57:37.988Z,1000.28
2022-09-20T15:58:37.980Z,1000.35
2022-09-20T15:59:37.969Z,1000.23
2022-09-20T16:00:37.937Z,1000.25
2022-09-20T16:01:37.970Z,1000.25
2022-09-20T16:02:37.942Z,1000.29
2022-09-20T16:03:37.944Z,1000.30
2022-09-20T16:04:37.943Z,1000.31
2022-09-20T16:05:37.933Z,1000.22
2022-09-20T16:06:37.878Z,1000.28
2022-09-20T16:07:37.893Z,1000.21
2022-09-20T16:08:37.866Z,1000.19
2022-09-20T16:09:37.919Z,1000.19
2022-09-20T16:10:37.865Z,1000.21
2022-09-20T16:11:37.872Z,1000.23
2022-09-20T16:12:37.868Z,1000.18
2022-09-20T16:13:37.895Z,1000.22
2022-09-20T16:14:37.815Z,1000.26
2022-09-20T16:15:37.776Z,1000.28
2022-09-20T16:16:40.575Z,1000.27
2022-09-20T16:17:38.793Z,1000.32
2022-09-20T16:18:37.788Z,1000.30
2022-09-20T16:19:37.760Z,1000.35
2022-09-20T16:20:37.768Z,1000.33
2022-09-20T16:21:37.744Z,1000.35
2022-09-20T16:22:37.763Z,1000.36
2022-09-20T16:23:37.760Z,1000.35
2022-09-20T16:24:37.714Z,1000.40
2022-09-20T16:25:38.696Z,1000.44
2022-09-20T16:26:37.722Z,1000.46
2022-09-20T16:27:37.715Z,1000.44
2022-09-20T16:28:37.652Z,1000.45
2022-09-20T16:29:37.658Z,1000.50
2022-09-20T16:30:37.636Z,1000.42
2022-09-20T16:31:37.682Z,1000.38
2022-09-20T16:32:37.657Z,1000.49
2022-09-20T16:33:37.615Z,1000.45
2022-09-20T16:34:37.631Z,1000.48
2022-09-20T16:35:37.579Z,1000.49
2022-09-20T16:36:37.632Z,1000.52
2022-09-20T16:37:37.608Z,1000.51
2022-09-20T16:38:37.554Z,1000.55
2022-09-20T16:39:37.612Z,1000.50
2022-09-20T16:40:37.628Z,1000.55
2022-09-20T16:41:37.517Z,1000.52
2022-09-20T16:42:37.558Z,1000.57
2022-09-20T16:43:37.555Z,1000.53
2022-09-20T16:44:37.520Z,1000.56
2022-09-20T16:45:37.569Z,1000.59
2022-09-20T16:46:37.491Z,1000.55
2022-09-20T16:47:37.610Z,1000.59
2022-09-20T16:48:37.485Z,1000.58
2022-09-20T16:49:37.489Z,1000.56
2022-09-20T16:50:37.460Z,1000.58
2022-09-20T16:51:37.468Z,1000.65
2022-09-20T16:52:37.486Z,1000.67
2022-09-20T16:53:37.428Z,1000.64
2022-09-20T16:54:37.420Z,1000.67
2022-09-20T16:55:37.397Z,1000.71
2022-09-20T16:56:37.390Z,1000.74
2022-09-20T16:57:37.408Z,1000.65
2022-09-20T16:58:37.375Z,1000.68
2022-09-20T16:59:37.402Z,1000.73
2022-09-20T17:00:37.426Z,1000.72
2022-09-20T17:01:37.385Z,1000.78
2022-09-20T17:02:37.337Z,1000.74
2022-09-20T17:03:37.337Z,1000.75
2022-09-20T17:04:37.377Z,1000.72
2022-09-20T17:05:37.312Z,1000.76
2022-09-20T17:06:37.297Z,1000.73
2022-09-20T17:07:37.312Z,1000.81
2022-09-20T17:08:37.281Z,1000.78
2022-09-20T17:09:37.289Z,1000.79
2022-09-20T17:10:37.223Z,1000.77
2022-09-20T17:11:37.240Z,1000.83
2022-09-20T17:12:37.259Z,1000.94
2022-09-20T17:13:37.281Z,1000.85
2022-09-20T17:14:37.233Z,1000.87
2022-09-20T17:15:37.211Z,1000.84
2022-09-20T17:16:37.303Z,1000.86
2022-09-20T17:17:37.219Z,1000.86
2022-09-20T17:18:37.175Z,1000.86
2022-09-20T17:19:37.150Z,1000.92
2022-09-20T17:20:37.267Z,1000.85
2022-09-20T17:21:37.233Z,1000.87
2022-09-20T17:22:37.200Z,1000.88
2022-09-20T17:23:37.838Z,1000.99
2022-09-20T17:24:37.170Z,1000.89
2022-09-20T17:25:37.128Z,1000.99
2022-09-20T17:26:37.203Z,1000.86
2022-09-20T17:27:37.140Z,1000.95
2022-09-20T17:28:37.158Z,1001.03
2022-09-20T17:29:37.178Z,1000.98
2022-09-20T17:30:37.125Z,1001.04
2022-09-20T17:31:37.174Z,1001.00
2022-09-20T17:32:38.315Z,1001.08
2022-09-20T17:33:37.277Z,1001.08
2022-09-20T17:34:37.213Z,1001.07